sensor_id;sensor_type;location;lat;lon;timestamp;temperature;humidity
43627;DHT22;29217;52.586;13.442;2022-10-18T00:01:35;14.80;99.90
43627;DHT22;29217;52.586;13.442;2022-10-18T00:04:00;14.80;99.90
43627;DHT22;29217;52.586;13.442;2022-10-18T00:06:26;14.80;99.90
43627;DHT22;29217;52.586;13.442;2022-10-18T00:08:52;14.80;99.90
43627;DHT22;29217;52.586;13.442;2022-10-18T00:11:17;14.80;99.90
43627;DHT22;29217;52.586;13.442;2022-10-18T00:13:43;14.80;99.90
43627;DHT22;29217;52.586;13.442;2022-10-18T00:16:11;14.70;99.90
43627;DHT22;29217;52.586;13.442;2022-10-18T00:18:38;14.70;99.90
43627;DHT22;29217;52.586;13.442;2022-10-18T00:21:10;14.70;99.90
43627;DHT22;29217;52.586;13.442;2022-10-18T00:23:36;14.70;99.90
43627;DHT22;29217;52.586;13.442;2022-10-18T00:28:30;14.70;99.90
43627;DHT22;29217;52.586;13.442;2022-10-18T00:30:55;14.70;99.90
43627;DHT22;29217;52.586;13.442;2022-10-18T00:33:21;14.50;99.90
43627;DHT22;29217;52.586;13.442;2022-10-18T00:35:47;14.50;99.90
43627;DHT22;29217;52.586;13.442;2022-10-18T00:38:12;14.50;99.90
43627;DHT22;29217;52.586;13.442;2022-10-18T00:40:38;14.50;99.90
43627;DHT22;29217;52.586;13.442;2022-10-18T00:43:03;14.60;99.90
43627;DHT22;29217;52.586;13.442;2022-10-18T00:45:29;14.60;99.90
43627;DHT22;29217;52.586;13.442;2022-10-18T00:48:00;14.50;99.90
43627;DHT22;29217;52.586;13.442;2022-10-18T00:50:31;14.60;99.90
43627;DHT22;29217;52.586;13.442;2022-10-18T00:53:01;14.50;99.90
43627;DHT22;29217;52.586;13.442;2022-10-18T00:55:28;14.40;99.90
43627;DHT22;29217;52.586;13.442;2022-10-18T00:57:56;14.50;99.90
43627;DHT22;29217;52.586;13.442;2022-10-18T01:00:22;14.50;99.90
43627;DHT22;29217;52.586;13.442;2022-10-18T01:02:47;14.50;99.90
43627;DHT22;29217;52.586;13.442;2022-10-18T01:05:15;14.50;99.90
43627;DHT22;29217;52.586;13.442;2022-10-18T01:10:50;14.50;99.90
43627;DHT22;29217;52.586;13.442;2022-10-18T01:16:40;14.80;99.90
43627;DHT22;29217;52.586;13.442;2022-10-18T01:19:20;14.90;99.90
43627;DHT22;29217;52.586;13.442;2022-10-18T01:21:56;15.00;99.90
43627;DHT22;29217;52.586;13.442;2022-10-18T01:30:45;15.20;99.90
43627;DHT22;29217;52.586;13.442;2022-10-18T01:33:20;15.30;99.90
43627;DHT22;29217;52.586;13.442;2022-10-18T01:35:52;15.30;99.90
43627;DHT22;29217;52.586;13.442;2022-10-18T01:38:20;15.40;99.90
43627;DHT22;29217;52.586;13.442;2022-10-18T01:40:48;15.50;99.90
43627;DHT22;29217;52.586;13.442;2022-10-18T01:43:16;15.50;99.90
43627;DHT22;29217;52.586;13.442;2022-10-18T01:45:42;15.50;99.90
43627;DHT22;29217;52.586;13.442;2022-10-18T01:48:09;15.50;99.90
43627;DHT22;29217;52.586;13.442;2022-10-18T01:50:35;15.50;99.90
43627;DHT22;29217;52.586;13.442;2022-10-18T01:53:01;15.50;99.90
43627;DHT22;29217;52.586;13.442;2022-10-18T01:55:43;15.50;99.90
43627;DHT22;29217;52.586;13.442;2022-10-18T01:58:20;15.40;99.90
43627;DHT22;29217;52.586;13.442;2022-10-18T02:00:49;15.50;99.90
43627;DHT22;29217;52.586;13.442;2022-10-18T02:03:23;15.50;99.90
43627;DHT22;29217;52.586;13.442;2022-10-18T02:06:07;15.40;99.90
43627;DHT22;29217;52.586;13.442;2022-10-18T02:11:08;15.40;99.90
43627;DHT22;29217;52.586;13.442;2022-10-18T02:13:43;15.50;99.90
43627;DHT22;29217;52.586;13.442;2022-10-18T02:16:14;15.50;99.90
43627;DHT22;29217;52.586;13.442;2022-10-18T02:18:48;15.50;99.90
43627;DHT22;29217;52.586;13.442;2022-10-18T02:21:17;15.50;99.90
43627;DHT22;29217;52.586;13.442;2022-10-18T02:23:45;15.50;99.90
43627;DHT22;29217;52.586;13.442;2022-10-18T02:26:11;15.50;99.90
43627;DHT22;29217;52.586;13.442;2022-10-18T02:28:37;15.50;99.90
43627;DHT22;29217;52.586;13.442;2022-10-18T02:31:14;15.60;99.90
43627;DHT22;29217;52.586;13.442;2022-10-18T02:36:50;15.70;99.90
43627;DHT22;29217;52.586;13.442;2022-10-18T02:39:19;15.70;99.90
43627;DHT22;29217;52.586;13.442;2022-10-18T02:41:47;15.70;99.90
43627;DHT22;29217;52.586;13.442;2022-10-18T02:44:13;15.80;99.90
43627;DHT22;29217;52.586;13.442;2022-10-18T02:46:39;15.80;99.90
43627;DHT22;29217;52.586;13.442;2022-10-18T02:49:05;15.80;99.90
43627;DHT22;29217;52.586;13.442;2022-10-18T02:51:31;15.90;99.90
43627;DHT22;29217;52.586;13.442;2022-10-18T02:53:56;15.90;99.90
43627;DHT22;29217;52.586;13.442;2022-10-18T02:56:22;15.90;99.90
43627;DHT22;29217;52.586;13.442;2022-10-18T02:58:47;15.90;99.90
43627;DHT22;29217;52.586;13.442;2022-10-18T03:01:13;15.90;99.90
43627;DHT22;29217;52.586;13.442;2022-10-18T03:03:38;16.00;99.90
43627;DHT22;29217;52.586;13.442;2022-10-18T03:06:04;16.00;99.90
43627;DHT22;29217;52.586;13.442;2022-10-18T03:08:29;16.10;99.90
43627;DHT22;29217;52.586;13.442;2022-10-18T03:10:55;16.10;99.90
43627;DHT22;29217;52.586;13.442;2022-10-18T03:13:20;16.00;99.90
43627;DHT22;29217;52.586;13.442;2022-10-18T03:15:47;16.10;99.90
43627;DHT22;29217;52.586;13.442;2022-10-18T03:18:13;16.10;99.90
43627;DHT22;29217;52.586;13.442;2022-10-18T03:20:39;16.10;99.90
43627;DHT22;29217;52.586;13.442;2022-10-18T03:23:04;16.10;99.90
43627;DHT22;29217;52.586;13.442;2022-10-18T03:25:31;16.10;99.90
43627;DHT22;29217;52.586;13.442;2022-10-18T03:27:59;16.10;99.90
43627;DHT22;29217;52.586;13.442;2022-10-18T03:30:25;16.20;99.90
43627;DHT22;29217;52.586;13.442;2022-10-18T03:32:50;16.20;99.90
43627;DHT22;29217;52.586;13.442;2022-10-18T03:35:16;16.20;99.90
43627;DHT22;29217;52.586;13.442;2022-10-18T03:37:41;16.20;99.90
43627;DHT22;29217;52.586;13.442;2022-10-18T03:40:08;16.30;99.90
43627;DHT22;29217;52.586;13.442;2022-10-18T03:42:33;16.30;99.90
43627;DHT22;29217;52.586;13.442;2022-10-18T03:44:59;16.20;99.90
43627;DHT22;29217;52.586;13.442;2022-10-18T03:47:24;16.20;99.90
43627;DHT22;29217;52.586;13.442;2022-10-18T03:49:50;16.20;99.90
43627;DHT22;29217;52.586;13.442;2022-10-18T03:52:15;16.20;99.90
43627;DHT22;29217;52.586;13.442;2022-10-18T03:54:41;16.20;99.90
43627;DHT22;29217;52.586;13.442;2022-10-18T03:57:06;16.20;99.90
43627;DHT22;29217;52.586;13.442;2022-10-18T03:59:32;16.20;99.90
43627;DHT22;29217;52.586;13.442;2022-10-18T04:01:57;16.20;99.90
43627;DHT22;29217;52.586;13.442;2022-10-18T04:04:23;16.10;99.90
43627;DHT22;29217;52.586;13.442;2022-10-18T04:06:48;16.10;99.90
43627;DHT22;29217;52.586;13.442;2022-10-18T04:09:14;16.10;99.90
43627;DHT22;29217;52.586;13.442;2022-10-18T04:11:39;16.10;99.90
43627;DHT22;29217;52.586;13.442;2022-10-18T04:14:05;16.10;99.90
43627;DHT22;29217;52.586;13.442;2022-10-18T04:16:30;16.00;99.90
43627;DHT22;29217;52.586;13.442;2022-10-18T04:18:56;16.00;99.90
43627;DHT22;29217;52.586;13.442;2022-10-18T04:21:22;16.00;99.90
43627;DHT22;29217;52.586;13.442;2022-10-18T04:23:48;16.00;99.90
43627;DHT22;29217;52.586;13.442;2022-10-18T04:26:14;15.90;99.90
43627;DHT22;29217;52.586;13.442;2022-10-18T04:28:41;15.90;99.90
43627;DHT22;29217;52.586;13.442;2022-10-18T04:31:08;15.90;99.90
43627;DHT22;29217;52.586;13.442;2022-10-18T04:33:34;15.90;99.90
43627;DHT22;29217;52.586;13.442;2022-10-18T04:35:59;15.90;99.90
43627;DHT22;29217;52.586;13.442;2022-10-18T04:38:25;15.90;99.90
43627;DHT22;29217;52.586;13.442;2022-10-18T04:40:50;15.80;99.90
43627;DHT22;29217;52.586;13.442;2022-10-18T04:43:16;15.80;99.90
43627;DHT22;29217;52.586;13.442;2022-10-18T04:45:44;15.80;99.90
43627;DHT22;29217;52.586;13.442;2022-10-18T04:48:09;15.80;99.90
43627;DHT22;29217;52.586;13.442;2022-10-18T04:50:35;15.80;99.90
43627;DHT22;29217;52.586;13.442;2022-10-18T04:53:00;15.80;99.90
43627;DHT22;29217;52.586;13.442;2022-10-18T04:55:26;15.80;99.90
43627;DHT22;29217;52.586;13.442;2022-10-18T04:57:52;15.80;99.90
43627;DHT22;29217;52.586;13.442;2022-10-18T05:00:17;15.70;99.90
43627;DHT22;29217;52.586;13.442;2022-10-18T05:02:43;15.70;99.90
43627;DHT22;29217;52.586;13.442;2022-10-18T05:05:08;15.70;99.90
43627;DHT22;29217;52.586;13.442;2022-10-18T05:07:34;15.70;99.90
43627;DHT22;29217;52.586;13.442;2022-10-18T05:09:59;15.70;99.90
43627;DHT22;29217;52.586;13.442;2022-10-18T05:12:25;15.70;99.90
43627;DHT22;29217;52.586;13.442;2022-10-18T05:14:50;15.60;99.90
43627;DHT22;29217;52.586;13.442;2022-10-18T05:17:16;15.60;99.90
43627;DHT22;29217;52.586;13.442;2022-10-18T05:19:41;15.70;99.90
43627;DHT22;29217;52.586;13.442;2022-10-18T05:22:07;15.60;99.90
43627;DHT22;29217;52.586;13.442;2022-10-18T05:24:32;15.60;99.90
43627;DHT22;29217;52.586;13.442;2022-10-18T05:26:58;15.70;99.90
43627;DHT22;29217;52.586;13.442;2022-10-18T05:29:24;15.70;99.90
43627;DHT22;29217;52.586;13.442;2022-10-18T05:31:49;15.60;99.90
43627;DHT22;29217;52.586;13.442;2022-10-18T05:34:16;15.60;99.90
43627;DHT22;29217;52.586;13.442;2022-10-18T05:36:42;15.50;99.90
43627;DHT22;29217;52.586;13.442;2022-10-18T05:39:07;15.50;99.90
43627;DHT22;29217;52.586;13.442;2022-10-18T05:41:33;15.60;99.90
43627;DHT22;29217;52.586;13.442;2022-10-18T05:44:02;15.50;99.90
43627;DHT22;29217;52.586;13.442;2022-10-18T05:46:28;15.50;99.90
43627;DHT22;29217;52.586;13.442;2022-10-18T05:48:54;15.40;99.90
43627;DHT22;29217;52.586;13.442;2022-10-18T05:51:20;15.40;99.90
43627;DHT22;29217;52.586;13.442;2022-10-18T05:53:45;15.30;99.90
43627;DHT22;29217;52.586;13.442;2022-10-18T05:56:11;15.40;99.90
43627;DHT22;29217;52.586;13.442;2022-10-18T05:58:36;15.30;99.90
43627;DHT22;29217;52.586;13.442;2022-10-18T06:01:03;15.40;99.90
43627;DHT22;29217;52.586;13.442;2022-10-18T06:03:29;15.30;99.90
43627;DHT22;29217;52.586;13.442;2022-10-18T06:05:59;15.30;99.90
43627;DHT22;29217;52.586;13.442;2022-10-18T06:08:25;15.30;99.90
43627;DHT22;29217;52.586;13.442;2022-10-18T06:10:51;15.30;99.90
43627;DHT22;29217;52.586;13.442;2022-10-18T06:13:16;15.30;99.90
43627;DHT22;29217;52.586;13.442;2022-10-18T06:15:42;15.30;99.90
43627;DHT22;29217;52.586;13.442;2022-10-18T06:18:07;15.30;99.90
43627;DHT22;29217;52.586;13.442;2022-10-18T06:20:33;15.30;99.90
43627;DHT22;29217;52.586;13.442;2022-10-18T06:22:58;15.30;99.90
43627;DHT22;29217;52.586;13.442;2022-10-18T06:25:24;15.30;99.90
43627;DHT22;29217;52.586;13.442;2022-10-18T06:27:49;15.30;99.90
43627;DHT22;29217;52.586;13.442;2022-10-18T06:30:15;15.30;99.90
43627;DHT22;29217;52.586;13.442;2022-10-18T06:32:40;15.30;99.90
43627;DHT22;29217;52.586;13.442;2022-10-18T06:35:06;15.20;99.90
43627;DHT22;29217;52.586;13.442;2022-10-18T06:37:31;15.30;99.90
43627;DHT22;29217;52.586;13.442;2022-10-18T06:39:59;15.30;99.90
43627;DHT22;29217;52.586;13.442;2022-10-18T06:42:24;15.30;99.90
43627;DHT22;29217;52.586;13.442;2022-10-18T06:44:50;15.20;99.90
43627;DHT22;29217;52.586;13.442;2022-10-18T06:47:15;15.30;99.90
43627;DHT22;29217;52.586;13.442;2022-10-18T06:49:41;15.30;99.90
43627;DHT22;29217;52.586;13.442;2022-10-18T06:52:06;15.30;99.90
43627;DHT22;29217;52.586;13.442;2022-10-18T06:54:32;15.30;99.90
43627;DHT22;29217;52.586;13.442;2022-10-18T06:56:58;15.30;99.90
43627;DHT22;29217;52.586;13.442;2022-10-18T06:59:24;15.20;99.90
43627;DHT22;29217;52.586;13.442;2022-10-18T07:01:49;15.20;99.90
43627;DHT22;29217;52.586;13.442;2022-10-18T07:04:15;15.20;99.90
43627;DHT22;29217;52.586;13.442;2022-10-18T07:06:40;15.20;99.90
43627;DHT22;29217;52.586;13.442;2022-10-18T07:09:06;15.20;99.90
43627;DHT22;29217;52.586;13.442;2022-10-18T07:11:31;15.30;99.90
43627;DHT22;29217;52.586;13.442;2022-10-18T07:14:01;15.30;99.90
43627;DHT22;29217;52.586;13.442;2022-10-18T07:16:28;15.30;99.90
43627;DHT22;29217;52.586;13.442;2022-10-18T07:18:54;15.40;99.90
43627;DHT22;29217;52.586;13.442;2022-10-18T07:21:22;15.40;99.90
43627;DHT22;29217;52.586;13.442;2022-10-18T07:23:48;15.40;99.90
43627;DHT22;29217;52.586;13.442;2022-10-18T07:28:50;15.50;99.90
43627;DHT22;29217;52.586;13.442;2022-10-18T07:31:18;15.50;99.90
43627;DHT22;29217;52.586;13.442;2022-10-18T07:33:43;15.60;99.90
43627;DHT22;29217;52.586;13.442;2022-10-18T07:36:10;15.60;99.90
43627;DHT22;29217;52.586;13.442;2022-10-18T07:38:36;15.60;99.90
43627;DHT22;29217;52.586;13.442;2022-10-18T07:41:04;15.60;99.90
43627;DHT22;29217;52.586;13.442;2022-10-18T07:43:31;15.70;99.90
43627;DHT22;29217;52.586;13.442;2022-10-18T07:46:00;15.70;99.90
43627;DHT22;29217;52.586;13.442;2022-10-18T07:48:27;15.70;99.90
43627;DHT22;29217;52.586;13.442;2022-10-18T07:50:52;15.70;99.90
43627;DHT22;29217;52.586;13.442;2022-10-18T07:53:18;15.80;99.90
43627;DHT22;29217;52.586;13.442;2022-10-18T07:55:43;15.70;99.90
43627;DHT22;29217;52.586;13.442;2022-10-18T07:58:10;15.80;99.90
43627;DHT22;29217;52.586;13.442;2022-10-18T08:00:35;15.80;99.90
43627;DHT22;29217;52.586;13.442;2022-10-18T08:03:01;15.80;99.90
43627;DHT22;29217;52.586;13.442;2022-10-18T08:05:27;15.80;99.90
43627;DHT22;29217;52.586;13.442;2022-10-18T08:07:53;15.80;99.90
43627;DHT22;29217;52.586;13.442;2022-10-18T08:10:20;15.80;99.90
43627;DHT22;29217;52.586;13.442;2022-10-18T08:12:46;15.90;99.90
43627;DHT22;29217;52.586;13.442;2022-10-18T08:15:12;15.90;99.90
43627;DHT22;29217;52.586;13.442;2022-10-18T08:17:37;15.90;99.90
43627;DHT22;29217;52.586;13.442;2022-10-18T08:20:04;15.80;99.90
43627;DHT22;29217;52.586;13.442;2022-10-18T08:22:30;15.80;99.90
43627;DHT22;29217;52.586;13.442;2022-10-18T08:24:55;15.80;99.90
43627;DHT22;29217;52.586;13.442;2022-10-18T08:27:21;15.80;99.90
43627;DHT22;29217;52.586;13.442;2022-10-18T08:29:46;15.90;99.90
43627;DHT22;29217;52.586;13.442;2022-10-18T08:32:12;15.80;99.90
43627;DHT22;29217;52.586;13.442;2022-10-18T08:34:38;15.80;99.90
43627;DHT22;29217;52.586;13.442;2022-10-18T08:37:03;15.80;99.90
43627;DHT22;29217;52.586;13.442;2022-10-18T08:39:29;15.70;99.90
43627;DHT22;29217;52.586;13.442;2022-10-18T08:42:08;15.70;99.90
43627;DHT22;29217;52.586;13.442;2022-10-18T08:44:46;15.70;99.90
43627;DHT22;29217;52.586;13.442;2022-10-18T08:47:22;15.70;99.90
43627;DHT22;29217;52.586;13.442;2022-10-18T08:49:59;15.70;99.90
43627;DHT22;29217;52.586;13.442;2022-10-18T08:52:49;15.70;99.90
43627;DHT22;29217;52.586;13.442;2022-10-18T09:00:49;15.80;99.90
43627;DHT22;29217;52.586;13.442;2022-10-18T09:03:31;15.80;99.90
43627;DHT22;29217;52.586;13.442;2022-10-18T09:17:16;15.70;99.90
43627;DHT22;29217;52.586;13.442;2022-10-18T09:20:19;15.70;99.90
43627;DHT22;29217;52.586;13.442;2022-10-18T09:22:53;15.70;99.90
43627;DHT22;29217;52.586;13.442;2022-10-18T09:28:16;15.60;99.90
43627;DHT22;29217;52.586;13.442;2022-10-18T09:36:01;15.60;99.90
43627;DHT22;29217;52.586;13.442;2022-10-18T09:38:31;15.60;99.90
43627;DHT22;29217;52.586;13.442;2022-10-18T09:41:06;15.60;99.90
43627;DHT22;29217;52.586;13.442;2022-10-18T09:44:08;15.70;99.90
43627;DHT22;29217;52.586;13.442;2022-10-18T09:46:46;15.70;99.90
43627;DHT22;29217;52.586;13.442;2022-10-18T09:49:17;15.60;99.90
43627;DHT22;29217;52.586;13.442;2022-10-18T09:51:44;15.70;99.90
43627;DHT22;29217;52.586;13.442;2022-10-18T09:56:54;15.70;99.90
43627;DHT22;29217;52.586;13.442;2022-10-18T10:02:01;15.70;99.90
43627;DHT22;29217;52.586;13.442;2022-10-18T10:04:27;15.60;99.90
43627;DHT22;29217;52.586;13.442;2022-10-18T10:06:54;15.70;99.90
43627;DHT22;29217;52.586;13.442;2022-10-18T10:09:26;15.60;99.90
43627;DHT22;29217;52.586;13.442;2022-10-18T10:11:54;15.60;99.90
43627;DHT22;29217;52.586;13.442;2022-10-18T10:14:25;15.60;99.90
43627;DHT22;29217;52.586;13.442;2022-10-18T10:16:57;15.60;99.90
43627;DHT22;29217;52.586;13.442;2022-10-18T10:19:27;15.60;99.90
43627;DHT22;29217;52.586;13.442;2022-10-18T10:22:05;15.50;99.90
43627;DHT22;29217;52.586;13.442;2022-10-18T10:27:01;15.60;99.90
43627;DHT22;29217;52.586;13.442;2022-10-18T10:32:13;15.60;99.90
43627;DHT22;29217;52.586;13.442;2022-10-18T10:34:39;15.60;99.90
43627;DHT22;29217;52.586;13.442;2022-10-18T10:37:24;15.50;99.90
43627;DHT22;29217;52.586;13.442;2022-10-18T10:40:18;15.60;99.90
43627;DHT22;29217;52.586;13.442;2022-10-18T10:42:54;15.50;99.90
43627;DHT22;29217;52.586;13.442;2022-10-18T10:45:21;15.60;99.90
43627;DHT22;29217;52.586;13.442;2022-10-18T10:47:48;15.60;99.90
43627;DHT22;29217;52.586;13.442;2022-10-18T10:50:23;15.60;99.90
43627;DHT22;29217;52.586;13.442;2022-10-18T10:52:49;15.60;99.90
43627;DHT22;29217;52.586;13.442;2022-10-18T10:55:17;15.50;99.90
43627;DHT22;29217;52.586;13.442;2022-10-18T10:57:46;15.50;99.90
43627;DHT22;29217;52.586;13.442;2022-10-18T11:00:42;15.60;99.90
43627;DHT22;29217;52.586;13.442;2022-10-18T11:03:14;15.60;99.90
43627;DHT22;29217;52.586;13.442;2022-10-18T11:05:46;15.60;99.90
43627;DHT22;29217;52.586;13.442;2022-10-18T11:08:19;15.60;99.90
43627;DHT22;29217;52.586;13.442;2022-10-18T11:13:38;15.60;99.90
43627;DHT22;29217;52.586;13.442;2022-10-18T11:16:27;15.50;99.90
43627;DHT22;29217;52.586;13.442;2022-10-18T11:18:56;15.50;99.90
43627;DHT22;29217;52.586;13.442;2022-10-18T11:21:25;15.60;99.90
43627;DHT22;29217;52.586;13.442;2022-10-18T11:23:52;15.60;99.90
43627;DHT22;29217;52.586;13.442;2022-10-18T11:26:27;15.60;99.90
43627;DHT22;29217;52.586;13.442;2022-10-18T11:32:10;15.50;99.90
43627;DHT22;29217;52.586;13.442;2022-10-18T11:35:06;15.60;99.90
43627;DHT22;29217;52.586;13.442;2022-10-18T11:40:47;15.50;99.90
43627;DHT22;29217;52.586;13.442;2022-10-18T11:46:19;15.60;99.90
43627;DHT22;29217;52.586;13.442;2022-10-18T11:51:50;15.70;99.90
43627;DHT22;29217;52.586;13.442;2022-10-18T12:01:10;15.70;99.90
43627;DHT22;29217;52.586;13.442;2022-10-18T12:03:37;15.70;99.90
43627;DHT22;29217;52.586;13.442;2022-10-18T12:06:15;15.70;99.90
43627;DHT22;29217;52.586;13.442;2022-10-18T12:08:46;15.70;99.90
43627;DHT22;29217;52.586;13.442;2022-10-18T12:11:36;15.70;99.90
43627;DHT22;29217;52.586;13.442;2022-10-18T12:14:20;15.70;99.90
43627;DHT22;29217;52.586;13.442;2022-10-18T12:16:47;15.70;99.90
43627;DHT22;29217;52.586;13.442;2022-10-18T12:19:23;15.70;99.90
43627;DHT22;29217;52.586;13.442;2022-10-18T12:21:50;15.80;99.90
43627;DHT22;29217;52.586;13.442;2022-10-18T12:24:20;15.80;99.90
43627;DHT22;29217;52.586;13.442;2022-10-18T12:26:48;15.70;99.90
43627;DHT22;29217;52.586;13.442;2022-10-18T12:29:34;15.70;99.90
43627;DHT22;29217;52.586;13.442;2022-10-18T12:32:13;15.70;99.90
43627;DHT22;29217;52.586;13.442;2022-10-18T12:34:50;15.70;99.90
43627;DHT22;29217;52.586;13.442;2022-10-18T12:40:24;15.70;99.90
43627;DHT22;29217;52.586;13.442;2022-10-18T12:42:55;15.70;99.90
43627;DHT22;29217;52.586;13.442;2022-10-18T12:45:26;15.70;99.90
43627;DHT22;29217;52.586;13.442;2022-10-18T12:47:54;15.80;99.90
43627;DHT22;29217;52.586;13.442;2022-10-18T12:50:35;15.90;99.90
43627;DHT22;29217;52.586;13.442;2022-10-18T12:53:19;15.90;99.90
43627;DHT22;29217;52.586;13.442;2022-10-18T12:55:49;15.90;99.90
43627;DHT22;29217;52.586;13.442;2022-10-18T13:14:01;16.00;99.90
43627;DHT22;29217;52.586;13.442;2022-10-18T13:16:48;16.00;99.90
43627;DHT22;29217;52.586;13.442;2022-10-18T13:19:38;15.90;99.90
43627;DHT22;29217;52.586;13.442;2022-10-18T13:22:32;16.00;99.90
43627;DHT22;29217;52.586;13.442;2022-10-18T13:25:25;16.10;99.90
43627;DHT22;29217;52.586;13.442;2022-10-18T13:28:04;16.00;99.90
43627;DHT22;29217;52.586;13.442;2022-10-18T13:35:55;16.10;99.90
43627;DHT22;29217;52.586;13.442;2022-10-18T13:38:40;16.10;99.90
43627;DHT22;29217;52.586;13.442;2022-10-18T13:41:10;16.10;99.90
43627;DHT22;29217;52.586;13.442;2022-10-18T13:43:52;16.10;99.90
43627;DHT22;29217;52.586;13.442;2022-10-18T13:46:20;16.10;99.90
43627;DHT22;29217;52.586;13.442;2022-10-18T13:48:48;16.10;99.90
43627;DHT22;29217;52.586;13.442;2022-10-18T13:51:34;16.30;99.90
43627;DHT22;29217;52.586;13.442;2022-10-18T14:09:22;16.30;99.90
43627;DHT22;29217;52.586;13.442;2022-10-18T14:15:06;16.20;99.90
43627;DHT22;29217;52.586;13.442;2022-10-18T14:17:56;16.30;99.90
43627;DHT22;29217;52.586;13.442;2022-10-18T14:20:43;16.30;99.90
43627;DHT22;29217;52.586;13.442;2022-10-18T14:23:25;16.40;99.90
43627;DHT22;29217;52.586;13.442;2022-10-18T14:26:04;16.50;99.90
43627;DHT22;29217;52.586;13.442;2022-10-18T14:28:30;16.50;99.90
43627;DHT22;29217;52.586;13.442;2022-10-18T14:31:04;16.40;99.90
43627;DHT22;29217;52.586;13.442;2022-10-18T14:36:05;16.30;99.90
43627;DHT22;29217;52.586;13.442;2022-10-18T14:38:32;16.20;99.90
43627;DHT22;29217;52.586;13.442;2022-10-18T14:41:11;16.20;99.90
43627;DHT22;29217;52.586;13.442;2022-10-18T14:43:38;16.20;99.90
43627;DHT22;29217;52.586;13.442;2022-10-18T14:46:21;16.20;99.90
43627;DHT22;29217;52.586;13.442;2022-10-18T14:48:51;16.20;99.90
43627;DHT22;29217;52.586;13.442;2022-10-18T14:51:18;16.20;99.90
43627;DHT22;29217;52.586;13.442;2022-10-18T14:53:43;16.20;99.90
43627;DHT22;29217;52.586;13.442;2022-10-18T14:56:25;16.20;99.90
43627;DHT22;29217;52.586;13.442;2022-10-18T14:58:52;16.20;99.90
43627;DHT22;29217;52.586;13.442;2022-10-18T15:01:21;16.20;99.90
43627;DHT22;29217;52.586;13.442;2022-10-18T15:03:48;16.20;99.90
43627;DHT22;29217;52.586;13.442;2022-10-18T15:06:16;16.20;99.90
43627;DHT22;29217;52.586;13.442;2022-10-18T15:08:43;16.20;99.90
43627;DHT22;29217;52.586;13.442;2022-10-18T15:11:10;16.20;99.90
43627;DHT22;29217;52.586;13.442;2022-10-18T15:13:49;16.30;99.90
43627;DHT22;29217;52.586;13.442;2022-10-18T15:16:19;16.40;99.90
43627;DHT22;29217;52.586;13.442;2022-10-18T15:21:56;16.30;99.90
43627;DHT22;29217;52.586;13.442;2022-10-18T15:24:37;16.30;99.90
43627;DHT22;29217;52.586;13.442;2022-10-18T15:27:20;16.30;99.90
43627;DHT22;29217;52.586;13.442;2022-10-18T15:29:47;16.30;99.90
43627;DHT22;29217;52.586;13.442;2022-10-18T15:32:33;16.30;99.90
43627;DHT22;29217;52.586;13.442;2022-10-18T15:35:14;16.20;99.90
43627;DHT22;29217;52.586;13.442;2022-10-18T15:37:47;16.10;99.90
43627;DHT22;29217;52.586;13.442;2022-10-18T15:42:49;16.00;99.90
43627;DHT22;29217;52.586;13.442;2022-10-18T15:50:49;15.70;99.90
43627;DHT22;29217;52.586;13.442;2022-10-18T15:58:36;15.10;99.90
43627;DHT22;29217;52.586;13.442;2022-10-18T16:01:03;15.00;99.90
43627;DHT22;29217;52.586;13.442;2022-10-18T16:03:33;14.80;99.90
43627;DHT22;29217;52.586;13.442;2022-10-18T16:06:04;14.80;99.90
43627;DHT22;29217;52.586;13.442;2022-10-18T16:08:30;14.60;99.90
43627;DHT22;29217;52.586;13.442;2022-10-18T16:10:57;14.60;99.90
43627;DHT22;29217;52.586;13.442;2022-10-18T16:13:24;14.50;99.90
43627;DHT22;29217;52.586;13.442;2022-10-18T16:15:50;14.30;99.90
43627;DHT22;29217;52.586;13.442;2022-10-18T16:18:18;14.30;99.90
43627;DHT22;29217;52.586;13.442;2022-10-18T16:20:45;14.30;99.90
43627;DHT22;29217;52.586;13.442;2022-10-18T16:23:17;14.40;99.90
43627;DHT22;29217;52.586;13.442;2022-10-18T16:25:43;14.20;99.90
43627;DHT22;29217;52.586;13.442;2022-10-18T16:28:13;14.20;99.90
43627;DHT22;29217;52.586;13.442;2022-10-18T16:30:44;14.20;99.90
43627;DHT22;29217;52.586;13.442;2022-10-18T16:33:10;14.10;99.90
43627;DHT22;29217;52.586;13.442;2022-10-18T16:35:36;14.00;99.90
43627;DHT22;29217;52.586;13.442;2022-10-18T16:38:02;14.00;99.90
43627;DHT22;29217;52.586;13.442;2022-10-18T16:40:27;13.90;99.90
43627;DHT22;29217;52.586;13.442;2022-10-18T16:42:54;13.60;99.90
43627;DHT22;29217;52.586;13.442;2022-10-18T16:45:19;13.50;99.90
43627;DHT22;29217;52.586;13.442;2022-10-18T16:47:45;13.40;99.90
43627;DHT22;29217;52.586;13.442;2022-10-18T16:50:15;13.40;99.90
43627;DHT22;29217;52.586;13.442;2022-10-18T16:52:41;13.30;99.90
43627;DHT22;29217;52.586;13.442;2022-10-18T16:55:07;13.20;99.90
43627;DHT22;29217;52.586;13.442;2022-10-18T16:57:39;13.20;99.90
43627;DHT22;29217;52.586;13.442;2022-10-18T17:00:05;13.30;99.90
43627;DHT22;29217;52.586;13.442;2022-10-18T17:02:31;13.20;99.90
43627;DHT22;29217;52.586;13.442;2022-10-18T17:04:56;13.10;99.90
43627;DHT22;29217;52.586;13.442;2022-10-18T17:07:23;13.00;99.90
43627;DHT22;29217;52.586;13.442;2022-10-18T17:09:49;12.90;99.90
43627;DHT22;29217;52.586;13.442;2022-10-18T17:12:14;12.70;99.90
43627;DHT22;29217;52.586;13.442;2022-10-18T17:14:40;12.70;99.90
43627;DHT22;29217;52.586;13.442;2022-10-18T17:17:10;12.70;99.90
43627;DHT22;29217;52.586;13.442;2022-10-18T17:19:35;12.70;99.90
43627;DHT22;29217;52.586;13.442;2022-10-18T17:22:01;12.60;99.90
43627;DHT22;29217;52.586;13.442;2022-10-18T17:24:26;12.60;99.90
43627;DHT22;29217;52.586;13.442;2022-10-18T17:26:52;12.70;99.90
43627;DHT22;29217;52.586;13.442;2022-10-18T17:29:17;12.70;99.90
43627;DHT22;29217;52.586;13.442;2022-10-18T17:31:43;12.70;99.90
43627;DHT22;29217;52.586;13.442;2022-10-18T17:34:08;12.60;99.90
43627;DHT22;29217;52.586;13.442;2022-10-18T17:36:34;12.50;99.90
43627;DHT22;29217;52.586;13.442;2022-10-18T17:39:00;12.30;99.90
43627;DHT22;29217;52.586;13.442;2022-10-18T17:41:26;12.10;99.90
43627;DHT22;29217;52.586;13.442;2022-10-18T17:43:51;12.10;99.90
43627;DHT22;29217;52.586;13.442;2022-10-18T17:46:17;12.00;99.90
43627;DHT22;29217;52.586;13.442;2022-10-18T17:48:44;12.00;99.90
43627;DHT22;29217;52.586;13.442;2022-10-18T17:51:12;11.90;99.90